createdAt,value
2023-05-14T00:00:52.598Z,98579.41
2023-05-14T00:01:55.601Z,98580.69
2023-05-14T00:02:58.895Z,98578.50
2023-05-14T00:04:03.146Z,98578.34
2023-05-14T00:05:06.647Z,98574.19
2023-05-14T00:06:10.974Z,98564.91
2023-05-14T00:07:13.825Z,98573.81
2023-05-14T00:08:16.762Z,98572.53
2023-05-14T00:09:20.004Z,98576.22
2023-05-14T00:10:23.085Z,98557.53
2023-05-14T00:11:26.294Z,98566.13
2023-05-14T00:12:30.301Z,98564.28
2023-05-14T00:13:33.187Z,98568.31
2023-05-14T00:14:36.147Z,98565.22
2023-05-14T00:15:39.095Z,98566.63
2023-05-14T00:16:41.933Z,98563.16
2023-05-14T00:17:45.005Z,98564.06
2023-05-14T00:18:48.053Z,98567.09
2023-05-14T00:19:51.465Z,98560.50
2023-05-14T00:20:55.187Z,98560.72
2023-05-14T00:21:58.082Z,98557.59
2023-05-14T00:23:01.342Z,98562.00
2023-05-14T00:24:04.567Z,98562.38
2023-05-14T00:25:08.692Z,98560.78
2023-05-14T00:26:11.511Z,98554.38
2023-05-14T00:27:15.025Z,98550.66
2023-05-14T00:28:18.024Z,98555.50
2023-05-14T00:29:21.013Z,98556.66
2023-05-14T00:30:24.015Z,98545.63
2023-05-14T00:31:27.052Z,98560.63
2023-05-14T00:32:30.041Z,98554.72
2023-05-14T00:33:32.999Z,98559.75
2023-05-14T00:34:36.448Z,98552.94
2023-05-14T00:35:39.595Z,98551.88
2023-05-14T00:36:42.436Z,98552.37
2023-05-14T00:37:45.241Z,98549.12
2023-05-14T00:38:48.090Z,98551.75
2023-05-14T00:39:51.037Z,98548.34
2023-05-14T00:40:54.198Z,98552.09
2023-05-14T00:41:57.006Z,98555.28
2023-05-14T00:42:59.861Z,98549.31
2023-05-14T00:44:03.046Z,98544.75
2023-05-14T00:45:07.059Z,98543.69
2023-05-14T00:46:10.443Z,98543.00
2023-05-14T00:47:13.664Z,98544.50
2023-05-14T00:48:16.559Z,98540.69
2023-05-14T00:49:19.583Z,98533.97
2023-05-14T00:50:23.034Z,98529.75
2023-05-14T00:51:26.257Z,98538.63
2023-05-14T00:52:29.328Z,98534.72
2023-05-14T00:53:32.301Z,98537.91
2023-05-14T00:54:36.683Z,98532.88
2023-05-14T00:55:42.193Z,98538.22
2023-05-14T00:56:46.464Z,98533.44
2023-05-14T00:57:51.227Z,98531.56
2023-05-14T00:58:54.151Z,98529.00
2023-05-14T00:59:57.322Z,98536.16
2023-05-14T01:01:00.521Z,98530.94
2023-05-14T01:02:03.484Z,98528.47
2023-05-14T01:03:07.992Z,98523.75
2023-05-14T01:04:12.126Z,98529.19
2023-05-14T01:05:15.149Z,98517.00
2023-05-14T01:06:30.166Z,98522.63
2023-05-14T01:08:02.154Z,98526.53
2023-05-14T01:09:46.262Z,98519.84
2023-05-14T01:10:58.073Z,98519.31
2023-05-14T01:12:03.811Z,98516.44
2023-05-14T01:13:21.253Z,98522.75
2023-05-14T01:14:45.714Z,98510.44
2023-05-14T01:15:49.947Z,98516.00
2023-05-14T01:16:58.382Z,98510.91
2023-05-14T01:18:09.870Z,98512.03
2023-05-14T01:19:27.910Z,98507.34
2023-05-14T01:20:30.892Z,98504.44
2023-05-14T01:21:38.455Z,98510.59
2023-05-14T01:22:41.440Z,98506.59
2023-05-14T01:23:44.309Z,98504.75
2023-05-14T01:24:47.477Z,98504.53
2023-05-14T01:25:50.765Z,98508.94
2023-05-14T01:27:00.531Z,98497.34
2023-05-14T01:28:18.291Z,98495.84
2023-05-14T01:29:23.444Z,98493.78
2023-05-14T01:30:51.302Z,98497.22
2023-05-14T01:31:57.878Z,98498.50
2023-05-14T01:33:06.545Z,98501.69
2023-05-14T01:34:12.062Z,98503.03
2023-05-14T01:35:16.003Z,98493.66
2023-05-14T01:36:19.324Z,98497.41
2023-05-14T01:37:22.859Z,98497.63
2023-05-14T01:38:27.938Z,98499.19
2023-05-14T01:39:32.950Z,98488.66
2023-05-14T01:40:37.401Z,98482.13
2023-05-14T01:41:40.630Z,98486.25
2023-05-14T01:42:44.906Z,98484.72
2023-05-14T01:43:48.246Z,98485.56
2023-05-14T01:44:51.241Z,98489.59
2023-05-14T01:45:55.829Z,98485.47
2023-05-14T01:46:58.795Z,98483.63
2023-05-14T01:48:01.806Z,98483.50
2023-05-14T01:49:04.779Z,98481.69
2023-05-14T01:50:07.844Z,98475.09
2023-05-14T01:51:10.875Z,98478.78
2023-05-14T01:52:13.778Z,98469.22
2023-05-14T01:53:16.759Z,98469.22
2023-05-14T01:54:19.631Z,98466.94
2023-05-14T01:55:24.922Z,98459.50
2023-05-14T01:56:27.870Z,98462.72
2023-05-14T01:57:30.920Z,98456.66
2023-05-14T01:58:33.815Z,98461.44
2023-05-14T01:59:36.756Z,98449.16
2023-05-14T02:00:39.731Z,98454.66
2023-05-14T02:01:42.649Z,98451.22
2023-05-14T02:02:46.026Z,98447.78
2023-05-14T02:03:49.113Z,98453.31
2023-05-14T02:04:52.744Z,98446.69
2023-05-14T02:05:56.200Z,98456.91
2023-05-14T02:06:59.108Z,98452.19
2023-05-14T02:08:01.994Z,98457.44
2023-05-14T02:09:05.513Z,98459.59
2023-05-14T02:10:09.008Z,98458.75
2023-05-14T02:11:11.866Z,98460.25
2023-05-14T02:12:14.801Z,98465.78
2023-05-14T02:13:17.713Z,98461.50
2023-05-14T02:14:20.985Z,98468.31
2023-05-14T02:15:23.895Z,98453.25
2023-05-14T02:16:26.866Z,98444.88
2023-05-14T02:17:30.025Z,98458.19
2023-05-14T02:18:33.036Z,98456.88
2023-05-14T02:19:35.882Z,98454.78
2023-05-14T02:20:38.765Z,98454.66
2023-05-14T02:21:41.755Z,98453.19
2023-05-14T02:22:46.573Z,98449.19
2023-05-14T02:23:50.434Z,98452.97
2023-05-14T02:24:53.271Z,98449.78
2023-05-14T02:25:56.187Z,98447.53
2023-05-14T02:27:01.500Z,98453.56
2023-05-14T02:28:04.512Z,98449.16
2023-05-14T02:29:07.364Z,98446.69
2023-05-14T02:30:11.200Z,98447.41
2023-05-14T02:31:14.819Z,98445.13
2023-05-14T02:32:18.002Z,98447.53
2023-05-14T02:33:21.011Z,98442.62
2023-05-14T02:34:24.181Z,98450.25
2023-05-14T02:35:27.238Z,98436.53
2023-05-14T02:36:30.039Z,98439.31
2023-05-14T02:37:33.048Z,98449.41
2023-05-14T02:38:35.931Z,98436.78
2023-05-14T02:39:38.844Z,98448.38
2023-05-14T02:40:41.639Z,98443.41
2023-05-14T02:41:44.638Z,98443.69
2023-05-14T02:42:47.602Z,98442.12
2023-05-14T02:43:50.597Z,98431.66
2023-05-14T02:44:53.467Z,98436.63
2023-05-14T02:45:56.465Z,98440.00
2023-05-14T02:46:59.610Z,98435.91
2023-05-14T02:48:02.772Z,98435.34
2023-05-14T02:49:05.838Z,98442.50
2023-05-14T02:50:09.196Z,98436.72
2023-05-14T02:51:12.523Z,98438.00
2023-05-14T02:52:15.785Z,98437.66
2023-05-14T02:53:19.004Z,98440.06
2023-05-14T02:54:22.061Z,98442.88
2023-05-14T02:55:26.722Z,98437.66
2023-05-14T02:56:29.552Z,98440.00
2023-05-14T02:57:32.513Z,98440.78
2023-05-14T02:58:35.598Z,98437.94
2023-05-14T02:59:38.602Z,98440.34
2023-05-14T03:00:42.347Z,98436.88
2023-05-14T03:01:45.798Z,98435.59
2023-05-14T03:02:49.251Z,98440.00
2023-05-14T03:03:52.786Z,98440.56
2023-05-14T03:04:55.758Z,98437.75
2023-05-14T03:05:58.531Z,98431.94
2023-05-14T03:07:01.412Z,98437.44
2023-05-14T03:08:04.295Z,98436.09
2023-05-14T03:09:07.782Z,98428.88
2023-05-14T03:10:11.067Z,98428.25
2023-05-14T03:11:14.239Z,98427.03
2023-05-14T03:12:17.080Z,98428.59
2023-05-14T03:13:21.024Z,98423.53
2023-05-14T03:14:23.832Z,98423.31
2023-05-14T03:15:26.909Z,98422.75
2023-05-14T03:16:29.781Z,98422.41
2023-05-14T03:17:32.969Z,98419.59
2023-05-14T03:18:36.888Z,98419.91
2023-05-14T03:19:39.757Z,98421.69
2023-05-14T03:20:42.763Z,98422.13
2023-05-14T03:21:45.939Z,98412.00
2023-05-14T03:22:48.937Z,98424.66
2023-05-14T03:23:53.172Z,98422.87
2023-05-14T03:24:56.097Z,98413.72
2023-05-14T03:25:59.079Z,98414.09
2023-05-14T03:27:01.907Z,98416.28
2023-05-14T03:28:05.018Z,98421.31
2023-05-14T03:29:07.927Z,98419.69
2023-05-14T03:30:12.059Z,98419.69
2023-05-14T03:31:15.078Z,98428.25
2023-05-14T03:32:18.991Z,98417.59
2023-05-14T03:33:22.950Z,98413.34
2023-05-14T03:34:25.949Z,98417.28
2023-05-14T03:35:28.817Z,98421.91
2023-05-14T03:36:32.224Z,98415.37
2023-05-14T03:37:35.032Z,98414.50
2023-05-14T03:38:37.856Z,98413.78
2023-05-14T03:39:40.752Z,98412.72
2023-05-14T03:40:45.294Z,98412.00
2023-05-14T03:41:48.506Z,98414.63
2023-05-14T03:42:51.273Z,98426.41
2023-05-14T03:43:54.265Z,98421.75
2023-05-14T03:44:57.104Z,98424.00
2023-05-14T03:46:00.283Z,98420.28
2023-05-14T03:47:03.464Z,98421.06
2023-05-14T03:48:06.779Z,98425.19
2023-05-14T03:49:09.792Z,98424.75
2023-05-14T03:50:12.766Z,98428.84
2023-05-14T03:51:15.939Z,98422.41
2023-05-14T03:52:18.860Z,98426.16
2023-05-14T03:53:21.816Z,98427.91
2023-05-14T03:54:24.575Z,98423.19
2023-05-14T03:55:27.600Z,98418.88
2023-05-14T03:56:30.563Z,98415.50
2023-05-14T03:57:33.432Z,98416.25
2023-05-14T03:58:36.268Z,98417.25
2023-05-14T03:59:39.145Z,98411.75
2023-05-14T04:00:42.929Z,98408.47
2023-05-14T04:01:45.778Z,98408.09
2023-05-14T04:02:48.646Z,98417.28
2023-05-14T04:03:52.032Z,98414.34
2023-05-14T04:04:55.023Z,98410.06
2023-05-14T04:05:58.030Z,98403.75
2023-05-14T04:07:00.862Z,98416.88
2023-05-14T04:08:03.783Z,98416.84
2023-05-14T04:09:06.833Z,98426.56
2023-05-14T04:10:09.991Z,98421.44
2023-05-14T04:11:12.846Z,98424.63
2023-05-14T04:12:15.773Z,98412.09
2023-05-14T04:13:18.715Z,98414.50
2023-05-14T04:14:21.683Z,98426.78
2023-05-14T04:15:24.784Z,98419.44
2023-05-14T04:16:27.805Z,98410.31
2023-05-14T04:17:30.843Z,98413.13
2023-05-14T04:18:35.666Z,98416.41
2023-05-14T04:19:39.493Z,98417.69
2023-05-14T04:20:42.410Z,98413.59
2023-05-14T04:21:45.593Z,98414.31
2023-05-14T04:22:48.371Z,98411.03
2023-05-14T04:23:51.890Z,98408.97
2023-05-14T04:24:54.656Z,98405.53
2023-05-14T04:25:58.083Z,98408.56
2023-05-14T04:27:00.983Z,98399.28
2023-05-14T04:28:03.983Z,98397.44
2023-05-14T04:29:06.891Z,98400.56
2023-05-14T04:30:10.398Z,98401.50
2023-05-14T04:31:13.451Z,98401.28
2023-05-14T04:32:16.543Z,98402.63
2023-05-14T04:33:19.424Z,98395.75
2023-05-14T04:34:22.221Z,98402.78
2023-05-14T04:35:25.518Z,98412.47
2023-05-14T04:36:28.712Z,98400.34
2023-05-14T04:37:32.097Z,98398.03
2023-05-14T04:38:35.015Z,98400.72
2023-05-14T04:39:38.563Z,98400.56
2023-05-14T04:40:44.542Z,98400.91
2023-05-14T04:41:47.367Z,98403.69
2023-05-14T04:42:50.438Z,98404.97
2023-05-14T04:43:56.902Z,98394.56
2023-05-14T04:44:59.635Z,98398.94
2023-05-14T04:46:02.633Z,98398.88
2023-05-14T04:47:07.313Z,98410.75
2023-05-14T04:48:10.262Z,98406.78
2023-05-14T04:49:13.590Z,98411.12
2023-05-14T04:50:16.737Z,98402.25
2023-05-14T04:51:19.632Z,98399.00
2023-05-14T04:52:22.461Z,98403.75
2023-05-14T04:53:25.375Z,98407.19
2023-05-14T04:54:28.294Z,98408.97
2023-05-14T04:55:31.352Z,98406.56
2023-05-14T04:56:34.142Z,98413.38
2023-05-14T04:57:37.041Z,98403.91
2023-05-14T04:58:39.973Z,98410.25
2023-05-14T04:59:43.059Z,98412.00
2023-05-14T05:00:46.129Z,98409.63
2023-05-14T05:01:49.131Z,98405.75
2023-05-14T05:02:52.077Z,98406.94
2023-05-14T05:03:55.647Z,98402.41
2023-05-14T05:04:58.508Z,98402.25
2023-05-14T05:06:01.670Z,98397.47
2023-05-14T05:07:05.978Z,98403.47
2023-05-14T05:08:08.934Z,98393.28
2023-05-14T05:09:11.882Z,98396.56
2023-05-14T05:10:15.023Z,98409.56
2023-05-14T05:11:18.252Z,98405.12
2023-05-14T05:12:21.759Z,98397.16
2023-05-14T05:13:24.961Z,98400.09
2023-05-14T05:14:27.898Z,98392.37
2023-05-14T05:15:30.760Z,98403.47
2023-05-14T05:16:33.730Z,98390.91
2023-05-14T05:17:37.318Z,98403.03
2023-05-14T05:18:40.471Z,98398.25
2023-05-14T05:19:44.564Z,98401.50
2023-05-14T05:20:48.033Z,98394.13
2023-05-14T05:21:51.514Z,98393.37
2023-05-14T05:22:54.545Z,98397.31
2023-05-14T05:23:57.456Z,98389.97
2023-05-14T05:25:00.366Z,98388.41
2023-05-14T05:26:03.308Z,98392.03
2023-05-14T05:27:06.390Z,98392.72
2023-05-14T05:28:09.468Z,98393.87
2023-05-14T05:29:12.340Z,98397.62
2023-05-14T05:30:15.233Z,98395.22
2023-05-14T05:31:19.787Z,98397.28
2023-05-14T05:32:23.503Z,98392.09
2023-05-14T05:33:26.755Z,98391.59
2023-05-14T05:34:30.014Z,98391.94
2023-05-14T05:35:32.795Z,98398.19
2023-05-14T05:36:36.173Z,98394.78
2023-05-14T05:37:39.012Z,98395.13
2023-05-14T05:38:41.918Z,98394.50
2023-05-14T05:39:44.745Z,98393.81
2023-05-14T05:40:48.280Z,98398.19
2023-05-14T05:41:51.146Z,98394.38
2023-05-14T05:42:54.096Z,98393.72
2023-05-14T05:43:57.184Z,98395.66
2023-05-14T05:45:00.062Z,98397.56
2023-05-14T05:46:03.083Z,98396.72
2023-05-14T05:47:06.342Z,98397.62
2023-05-14T05:48:09.230Z,98390.03
2023-05-14T05:49:12.045Z,98389.75
2023-05-14T05:50:15.297Z,98393.94
2023-05-14T05:51:18.106Z,98389.62
2023-05-14T05:52:21.109Z,98399.53
2023-05-14T05:53:23.937Z,98395.06
2023-05-14T05:54:27.402Z,98399.72
2023-05-14T05:55:30.742Z,98396.44
2023-05-14T05:56:33.810Z,98392.94
2023-05-14T05:57:36.748Z,98394.00
2023-05-14T05:58:39.746Z,98398.63
2023-05-14T05:59:42.726Z,98398.34
2023-05-14T06:00:47.267Z,98398.06
2023-05-14T06:01:50.181Z,98394.09
2023-05-14T06:02:53.228Z,98396.97
2023-05-14T06:03:57.180Z,98400.81
2023-05-14T06:05:00.029Z,98394.81
2023-05-14T06:06:03.158Z,98401.59
2023-05-14T06:07:05.973Z,98399.53
2023-05-14T06:08:08.962Z,98404.56
2023-05-14T06:09:11.849Z,98405.34
2023-05-14T06:10:14.714Z,98408.31
2023-05-14T06:11:17.640Z,98404.84
2023-05-14T06:12:21.001Z,98407.13
2023-05-14T06:13:23.857Z,98406.81
2023-05-14T06:14:26.722Z,98411.16
2023-05-14T06:15:29.628Z,98407.97
2023-05-14T06:16:32.658Z,98407.69
2023-05-14T06:17:35.744Z,98408.16
2023-05-14T06:18:38.603Z,98406.13
2023-05-14T06:19:41.610Z,98411.84
2023-05-14T06:20:45.252Z,98415.41
2023-05-14T06:21:48.182Z,98404.47
2023-05-14T06:22:50.987Z,98412.41
2023-05-14T06:23:53.827Z,98404.25
2023-05-14T06:24:56.702Z,98411.75
2023-05-14T06:25:59.631Z,98408.56
2023-05-14T06:27:02.603Z,98408.09
2023-05-14T06:28:05.575Z,98404.41
2023-05-14T06:29:08.508Z,98416.22
2023-05-14T06:30:12.335Z,98410.00
2023-05-14T06:31:15.589Z,98400.72
2023-05-14T06:32:18.643Z,98410.41
2023-05-14T06:33:29.853Z,98412.44
2023-05-14T06:34:32.982Z,98405.94
2023-05-14T06:35:37.299Z,98405.47
2023-05-14T06:36:40.484Z,98414.66
2023-05-14T06:37:43.321Z,98407.31
2023-05-14T06:38:46.104Z,98405.03
2023-05-14T06:39:50.890Z,98403.19
2023-05-14T06:40:53.862Z,98397.12
2023-05-14T06:41:56.805Z,98400.50
2023-05-14T06:42:59.766Z,98412.78
2023-05-14T06:44:02.721Z,98403.03
2023-05-14T06:45:06.773Z,98399.28
2023-05-14T06:46:09.657Z,98412.69
2023-05-14T06:47:12.539Z,98406.41
2023-05-14T06:48:15.776Z,98404.41
2023-05-14T06:49:18.734Z,98406.34
2023-05-14T06:50:21.966Z,98395.31
2023-05-14T06:51:25.036Z,98399.97
2023-05-14T06:52:28.173Z,98400.44
2023-05-14T06:53:31.519Z,98400.25
2023-05-14T06:54:34.462Z,98395.44
2023-05-14T06:55:37.434Z,98389.84
2023-05-14T06:56:40.313Z,98394.59
2023-05-14T06:57:43.234Z,98394.81
2023-05-14T06:58:45.970Z,98396.50
2023-05-14T06:59:48.947Z,98392.53
2023-05-14T07:00:51.779Z,98387.16
2023-05-14T07:01:54.777Z,98394.50
2023-05-14T07:02:57.725Z,98393.28
2023-05-14T07:04:00.672Z,98387.00
2023-05-14T07:05:03.893Z,98380.78
2023-05-14T07:06:07.331Z,98391.94
2023-05-14T07:07:13.862Z,98389.38
2023-05-14T07:08:16.704Z,98391.13
2023-05-14T07:09:20.026Z,98379.81
2023-05-14T07:10:23.155Z,98383.50
2023-05-14T07:11:26.348Z,98384.34
2023-05-14T07:12:29.181Z,98386.41
2023-05-14T07:13:32.088Z,98385.44
2023-05-14T07:14:34.925Z,98386.59
2023-05-14T07:15:37.886Z,98378.34
2023-05-14T07:16:41.950Z,98378.47
2023-05-14T07:17:45.551Z,98375.53
2023-05-14T07:18:48.528Z,98372.34
2023-05-14T07:19:51.616Z,98377.00
2023-05-14T07:20:54.538Z,98368.78
2023-05-14T07:21:58.282Z,98369.06
2023-05-14T07:23:01.128Z,98377.31
2023-05-14T07:24:04.237Z,98371.22
2023-05-14T07:25:08.018Z,98368.22
2023-05-14T07:26:10.997Z,98364.53
2023-05-14T07:27:13.900Z,98365.13
2023-05-14T07:28:16.761Z,98357.91
2023-05-14T07:29:19.641Z,98357.16
2023-05-14T07:30:22.888Z,98359.28
2023-05-14T07:31:26.039Z,98360.16
2023-05-14T07:32:29.189Z,98361.53
2023-05-14T07:33:32.335Z,98363.47
2023-05-14T07:34:35.142Z,98363.37
2023-05-14T07:35:38.039Z,98362.31
2023-05-14T07:36:41.434Z,98358.44
2023-05-14T07:37:44.524Z,98366.09
2023-05-14T07:38:47.514Z,98364.34
2023-05-14T07:39:50.613Z,98363.69
2023-05-14T07:40:53.621Z,98365.78
2023-05-14T07:41:56.645Z,98373.47
2023-05-14T07:42:59.669Z,98367.34
2023-05-14T07:44:02.748Z,98364.59
2023-05-14T07:45:06.397Z,98363.34
2023-05-14T07:46:09.594Z,98364.00
2023-05-14T07:47:12.569Z,98356.56
2023-05-14T07:48:15.720Z,98363.91
2023-05-14T07:49:18.819Z,98363.66
2023-05-14T07:50:23.730Z,98359.88
2023-05-14T07:51:28.857Z,98356.56
2023-05-14T07:52:31.648Z,98360.03
2023-05-14T07:53:34.582Z,98356.44
2023-05-14T07:54:37.539Z,98354.13
2023-05-14T07:55:40.584Z,98346.81
2023-05-14T07:56:43.423Z,98345.81
2023-05-14T07:57:46.899Z,98348.78
2023-05-14T07:58:51.309Z,98346.31
2023-05-14T07:59:54.224Z,98345.97
2023-05-14T08:00:57.880Z,98346.94
2023-05-14T08:02:00.892Z,98346.50
2023-05-14T08:03:04.128Z,98343.97
2023-05-14T08:04:07.255Z,98337.97
2023-05-14T08:05:10.824Z,98341.88
2023-05-14T08:06:13.619Z,98344.38
2023-05-14T08:07:16.520Z,98349.81
2023-05-14T08:08:19.314Z,98341.53
2023-05-14T08:09:22.286Z,98336.16
2023-05-14T08:10:25.709Z,98336.44
2023-05-14T08:11:32.036Z,98329.75
2023-05-14T08:12:34.900Z,98330.03
2023-05-14T08:13:37.964Z,98327.19
2023-05-14T08:14:40.937Z,98325.81
2023-05-14T08:15:43.876Z,98322.03
2023-05-14T08:16:46.732Z,98322.69
2023-05-14T08:17:49.772Z,98322.41
2023-05-14T08:18:52.686Z,98323.53
2023-05-14T08:19:55.503Z,98321.63
2023-05-14T08:20:58.441Z,98331.78
2023-05-14T08:22:01.333Z,98326.41
2023-05-14T08:23:04.218Z,98324.06
2023-05-14T08:24:07.368Z,98330.91
2023-05-14T08:25:10.680Z,98321.75
2023-05-14T08:26:13.634Z,98322.09
2023-05-14T08:27:16.900Z,98323.53
2023-05-14T08:28:19.744Z,98310.34
2023-05-14T08:29:22.580Z,98319.66
2023-05-14T08:30:26.099Z,98321.69
2023-05-14T08:31:29.390Z,98317.81
2023-05-14T08:32:32.388Z,98314.66
2023-05-14T08:33:35.343Z,98309.44
2023-05-14T08:34:38.247Z,98306.53
2023-05-14T08:35:41.238Z,98308.34
2023-05-14T08:36:44.115Z,98307.25
2023-05-14T08:37:46.873Z,98305.66
2023-05-14T08:38:50.682Z,98304.03
2023-05-14T08:39:53.461Z,98304.59
2023-05-14T08:41:00.942Z,98302.88
2023-05-14T08:42:06.861Z,98302.37
2023-05-14T08:43:12.392Z,98290.00
2023-05-14T08:44:51.830Z,98304.84
2023-05-14T08:45:58.720Z,98283.78
2023-05-14T08:47:02.316Z,98291.38
2023-05-14T08:48:10.073Z,98294.28
2023-05-14T08:49:22.790Z,98293.47
2023-05-14T08:50:26.011Z,98296.22
2023-05-14T08:51:29.160Z,98294.16
2023-05-14T08:52:32.771Z,98291.44
2023-05-14T08:53:36.252Z,98283.56
2023-05-14T08:54:40.718Z,98289.47
2023-05-14T08:55:45.608Z,98296.63
2023-05-14T08:56:49.946Z,98298.44
2023-05-14T08:57:54.958Z,98296.09
2023-05-14T08:58:57.825Z,98293.81
2023-05-14T09:00:01.691Z,98293.91
2023-05-14T09:01:04.790Z,98300.25
2023-05-14T09:02:10.440Z,98301.81
2023-05-14T09:03:15.111Z,98292.06
2023-05-14T09:04:22.317Z,98296.53
2023-05-14T09:05:25.811Z,98303.75
2023-05-14T09:06:29.306Z,98291.88
2023-05-14T09:07:32.366Z,98300.38
2023-05-14T09:08:36.784Z,98302.00
2023-05-14T09:09:40.662Z,98303.06
2023-05-14T09:10:43.598Z,98304.47
2023-05-14T09:11:47.321Z,98298.47
2023-05-14T09:12:50.187Z,98296.97
2023-05-14T09:13:53.011Z,98296.81
2023-05-14T09:14:55.897Z,98295.28
2023-05-14T09:15:59.381Z,98303.81
2023-05-14T09:17:02.844Z,98298.56
2023-05-14T09:18:06.525Z,98296.00
2023-05-14T09:19:09.629Z,98300.91
2023-05-14T09:20:13.445Z,98293.09
2023-05-14T09:21:16.565Z,98289.47
2023-05-14T09:22:20.738Z,98286.72
2023-05-14T09:23:26.752Z,98290.47
2023-05-14T09:24:29.881Z,98286.34
2023-05-14T09:25:32.936Z,98283.00
2023-05-14T09:26:36.130Z,98285.56
2023-05-14T09:27:39.287Z,98286.28
2023-05-14T09:28:42.336Z,98277.81
2023-05-14T09:29:45.222Z,98278.09
2023-05-14T09:30:52.368Z,98279.56
2023-05-14T09:31:56.683Z,98274.47
2023-05-14T09:32:59.887Z,98272.38
2023-05-14T09:34:02.803Z,98267.09
2023-05-14T09:35:12.775Z,98275.12
2023-05-14T09:36:17.140Z,98268.41
2023-05-14T09:37:19.964Z,98275.41
2023-05-14T09:38:28.559Z,98268.91
2023-05-14T09:39:32.940Z,98280.06
2023-05-14T09:40:36.406Z,98273.66
2023-05-14T09:41:39.626Z,98272.19
2023-05-14T09:42:42.756Z,98277.81
2023-05-14T09:43:45.692Z,98271.69
2023-05-14T09:44:48.524Z,98277.87
2023-05-14T09:45:51.520Z,98261.56
2023-05-14T09:46:54.674Z,98260.91
2023-05-14T09:48:01.437Z,98255.47
2023-05-14T09:49:04.746Z,98254.81
2023-05-14T09:50:08.446Z,98256.25
2023-05-14T09:51:11.831Z,98251.00
2023-05-14T09:52:14.803Z,98262.22
2023-05-14T09:53:18.044Z,98243.72
2023-05-14T09:54:21.053Z,98249.88
2023-05-14T09:55:24.055Z,98248.00
2023-05-14T09:56:26.978Z,98248.59
2023-05-14T09:57:29.973Z,98250.34
2023-05-14T09:58:33.009Z,98248.16
2023-05-14T09:59:35.886Z,98246.69
2023-05-14T10:00:39.258Z,98250.69
2023-05-14T10:01:44.622Z,98239.56
2023-05-14T10:02:49.041Z,98241.75
2023-05-14T10:03:53.656Z,98237.91
2023-05-14T10:05:01.097Z,98231.69
2023-05-14T10:06:07.150Z,98229.84
2023-05-14T10:07:10.430Z,98222.16
2023-05-14T10:08:20.203Z,98220.34
2023-05-14T10:09:26.519Z,98224.56
2023-05-14T10:10:30.628Z,98215.72
2023-05-14T10:11:37.582Z,98219.34
2023-05-14T10:12:41.144Z,98220.84
2023-05-14T10:14:04.855Z,98218.16
2023-05-14T10:15:24.449Z,98211.38
2023-05-14T10:16:35.490Z,98202.75
2023-05-14T10:17:41.348Z,98192.88
2023-05-14T10:18:48.812Z,98192.75
2023-05-14T10:19:54.867Z,98185.06
2023-05-14T10:21:05.127Z,98180.16
2023-05-14T10:22:11.882Z,98178.19
2023-05-14T10:23:15.257Z,98174.66
2023-05-14T10:24:19.469Z,98170.31
2023-05-14T10:25:23.222Z,98165.53
2023-05-14T10:26:26.443Z,98153.62
2023-05-14T10:27:30.021Z,98161.81
2023-05-14T10:28:33.517Z,98150.69
2023-05-14T10:29:38.245Z,98153.34
2023-05-14T10:30:47.299Z,98153.34
2023-05-14T10:31:55.621Z,98154.59
2023-05-14T10:33:09.676Z,98160.19
2023-05-14T10:34:38.893Z,98158.19
2023-05-14T10:35:53.130Z,98170.22
2023-05-14T10:37:00.284Z,98182.72
2023-05-14T10:38:08.887Z,98184.16
2023-05-14T10:39:11.852Z,98187.22
2023-05-14T10:40:14.928Z,98185.41
2023-05-14T10:41:21.872Z,98174.69
2023-05-14T10:42:43.749Z,98173.91
2023-05-14T10:43:47.181Z,98170.81
2023-05-14T10:45:02.743Z,98164.72
2023-05-14T10:46:06.834Z,98169.69
2023-05-14T10:47:09.906Z,98171.53
2023-05-14T10:48:12.877Z,98174.06
2023-05-14T10:49:28.906Z,98176.06
2023-05-14T10:50:39.271Z,98169.66
2023-05-14T10:51:42.375Z,98167.28
2023-05-14T10:52:46.223Z,98171.13
2023-05-14T10:53:49.506Z,98162.50
2023-05-14T10:54:55.395Z,98171.06
2023-05-14T10:55:58.187Z,98161.00
2023-05-14T10:57:01.337Z,98158.19
2023-05-14T10:58:05.052Z,98162.03
2023-05-14T10:59:08.253Z,98163.03
2023-05-14T11:00:11.801Z,98165.97
2023-05-14T11:01:14.972Z,98168.00
2023-05-14T11:02:55.713Z,98172.50
2023-05-14T11:03:58.857Z,98169.72
2023-05-14T11:05:04.483Z,98175.44
2023-05-14T11:06:07.920Z,98174.94
2023-05-14T11:07:10.940Z,98172.31
2023-05-14T11:08:14.534Z,98169.34
2023-05-14T11:09:18.119Z,98174.03
2023-05-14T11:10:26.275Z,98173.59
2023-05-14T11:11:29.777Z,98169.03
2023-05-14T11:12:34.169Z,98169.03
2023-05-14T11:13:37.106Z,98169.06
2023-05-14T11:14:40.251Z,98160.41
2023-05-14T11:15:49.873Z,98143.28
2023-05-14T11:16:52.892Z,98143.25
2023-05-14T11:17:56.042Z,98141.97
2023-05-14T11:19:06.321Z,98146.09
2023-05-14T11:20:10.830Z,98144.41
2023-05-14T11:21:14.071Z,98154.44
2023-05-14T11:22:16.887Z,98139.81
2023-05-14T11:23:25.550Z,98149.41
2023-05-14T11:24:28.373Z,98142.69
2023-05-14T11:25:31.484Z,98137.62
2023-05-14T11:26:34.540Z,98142.72
2023-05-14T11:27:39.122Z,98145.16
2023-05-14T11:28:42.065Z,98149.75
2023-05-14T11:29:49.291Z,98146.88
2023-05-14T11:30:53.483Z,98144.34
2023-05-14T11:31:56.659Z,98139.34
2023-05-14T11:33:01.881Z,98142.97
2023-05-14T11:34:08.109Z,98142.78
2023-05-14T11:35:10.941Z,98145.19
2023-05-14T11:36:14.208Z,98139.13
2023-05-14T11:37:17.516Z,98144.72
2023-05-14T11:38:21.536Z,98139.16
2023-05-14T11:39:24.302Z,98138.97
2023-05-14T11:40:27.405Z,98142.97
2023-05-14T11:41:31.596Z,98142.19
2023-05-14T11:42:34.566Z,98146.34
2023-05-14T11:43:37.644Z,98144.84
2023-05-14T11:44:46.873Z,98141.16
2023-05-14T11:45:56.692Z,98135.03
2023-05-14T11:46:59.839Z,98138.88
2023-05-14T11:48:02.854Z,98141.31
2023-05-14T11:49:06.967Z,98141.47
2023-05-14T11:50:10.221Z,98138.03
2023-05-14T11:51:13.159Z,98144.53
2023-05-14T11:52:19.696Z,98145.91
2023-05-14T11:53:27.623Z,98129.38
2023-05-14T11:54:31.494Z,98139.16
2023-05-14T11:55:36.570Z,98136.09
2023-05-14T11:56:39.473Z,98132.81
2023-05-14T11:57:42.849Z,98127.38
2023-05-14T11:58:49.579Z,98131.38
2023-05-14T11:59:59.211Z,98132.47
2023-05-14T12:01:02.385Z,98117.50
2023-05-14T12:02:06.392Z,98128.34
2023-05-14T12:03:10.496Z,98127.25
2023-05-14T12:04:19.179Z,98122.62
2023-05-14T12:05:22.218Z,98122.28
2023-05-14T12:06:32.431Z,98119.53
2023-05-14T12:07:35.279Z,98114.16
2023-05-14T12:08:38.110Z,98118.47
2023-05-14T12:09:49.854Z,98118.28
2023-05-14T12:10:58.499Z,98110.00
2023-05-14T12:12:09.156Z,98104.59
2023-05-14T12:13:16.017Z,98107.84
2023-05-14T12:14:23.677Z,98098.44
2023-05-14T12:15:27.043Z,98097.03
2023-05-14T12:16:33.938Z,98093.59
2023-05-14T12:17:38.380Z,98087.22
2023-05-14T12:18:41.450Z,98101.91
2023-05-14T12:19:45.876Z,98093.09
2023-05-14T12:20:49.429Z,98092.94
2023-05-14T12:21:52.293Z,98091.38
2023-05-14T12:22:55.162Z,98087.47
2023-05-14T12:24:01.660Z,98083.31
2023-05-14T12:25:04.795Z,98090.88
2023-05-14T12:26:09.633Z,98091.22
2023-05-14T12:27:12.535Z,98086.34
2023-05-14T12:28:16.538Z,98085.72
2023-05-14T12:29:22.027Z,98083.53
2023-05-14T12:30:25.139Z,98074.84
2023-05-14T12:31:32.132Z,98080.63
2023-05-14T12:32:36.213Z,98074.03
2023-05-14T12:33:39.187Z,98079.87
2023-05-14T12:34:41.960Z,98080.78